createdAt,value
2023-05-14T00:01:19.546Z,11.12
2023-05-14T00:03:46.117Z,11.08
2023-05-14T00:06:12.656Z,11.06
2023-05-14T00:08:39.094Z,11.08
2023-05-14T00:11:05.820Z,11.03
2023-05-14T00:13:32.337Z,11.03
2023-05-14T00:15:58.851Z,11.01
2023-05-14T00:18:25.434Z,11.05
2023-05-14T00:20:54.634Z,11.04
2023-05-14T00:23:22.223Z,11.04
2023-05-14T00:25:48.702Z,11.03
2023-05-14T00:28:15.316Z,10.95
2023-05-14T00:30:42.010Z,11.01
2023-05-14T00:33:08.829Z,10.98
2023-05-14T00:35:35.737Z,10.87
2023-05-14T00:38:02.799Z,10.82
2023-05-14T00:40:29.373Z,10.85
2023-05-14T00:42:56.240Z,10.82
2023-05-14T00:45:23.032Z,10.81
2023-05-14T00:47:50.084Z,10.79
2023-05-14T00:50:16.667Z,10.76
2023-05-14T00:52:43.219Z,10.77
2023-05-14T00:55:12.884Z,10.77
2023-05-14T00:57:39.476Z,10.75
2023-05-14T01:00:06.648Z,10.78
2023-05-14T01:02:33.568Z,10.78
2023-05-14T01:05:00.597Z,10.77
2023-05-14T01:07:32.163Z,10.86
2023-05-14T01:10:05.350Z,10.85
2023-05-14T01:13:06.273Z,10.88
2023-05-14T01:15:34.219Z,10.90
2023-05-14T01:18:11.469Z,10.93
2023-05-14T01:20:37.932Z,10.95
2023-05-14T01:23:04.452Z,10.98
2023-05-14T01:25:31.486Z,10.99
2023-05-14T01:28:06.854Z,11.05
2023-05-14T01:30:36.135Z,10.99
2023-05-14T01:33:03.782Z,11.05
2023-05-14T01:35:30.708Z,10.99
2023-05-14T01:37:59.855Z,10.97
2023-05-14T01:40:27.128Z,10.97
2023-05-14T01:42:54.526Z,10.90
2023-05-14T01:45:21.906Z,10.88
2023-05-14T01:47:48.581Z,10.85
2023-05-14T01:50:15.852Z,10.79
2023-05-14T01:52:42.377Z,10.74
2023-05-14T01:55:09.292Z,10.69
2023-05-14T01:57:36.091Z,10.65
2023-05-14T02:00:04.117Z,10.63
2023-05-14T02:02:40.641Z,10.56
2023-05-14T02:05:11.049Z,10.58
2023-05-14T02:07:37.676Z,10.60
2023-05-14T02:10:04.831Z,10.53
2023-05-14T02:12:31.333Z,10.53
2023-05-14T02:14:57.812Z,10.53
2023-05-14T02:17:26.870Z,10.51
2023-05-14T02:19:54.200Z,10.51
2023-05-14T02:22:20.715Z,10.54
2023-05-14T02:24:47.159Z,10.55
2023-05-14T02:27:13.687Z,10.61
2023-05-14T02:29:40.193Z,10.59
2023-05-14T02:32:07.122Z,10.64
2023-05-14T02:34:34.472Z,10.64
2023-05-14T02:37:01.181Z,10.65
2023-05-14T02:39:27.859Z,10.65
2023-05-14T02:41:54.709Z,10.60
2023-05-14T02:44:21.248Z,10.63
2023-05-14T02:46:47.833Z,10.61
2023-05-14T02:49:14.529Z,10.62
2023-05-14T02:51:40.990Z,10.61
2023-05-14T02:54:07.680Z,10.62
2023-05-14T02:56:34.164Z,10.64
2023-05-14T02:59:00.644Z,10.68
2023-05-14T03:01:28.021Z,10.70
2023-05-14T03:03:55.364Z,10.74
2023-05-14T03:06:21.880Z,10.74
2023-05-14T03:08:48.365Z,10.72
2023-05-14T03:11:14.871Z,10.74
2023-05-14T03:13:41.458Z,10.71
2023-05-14T03:16:08.164Z,10.70
2023-05-14T03:18:36.468Z,10.68
2023-05-14T03:21:03.925Z,10.71
2023-05-14T03:23:31.947Z,10.68
2023-05-14T03:25:58.802Z,10.67
2023-05-14T03:28:25.866Z,10.71
2023-05-14T03:30:52.573Z,10.67
2023-05-14T03:33:19.371Z,10.67
2023-05-14T03:35:46.108Z,10.65
2023-05-14T03:38:12.670Z,10.61
2023-05-14T03:40:39.161Z,10.57
2023-05-14T03:43:05.895Z,10.52
2023-05-14T03:45:33.186Z,10.52
2023-05-14T03:47:59.852Z,10.48
2023-05-14T03:50:26.660Z,10.46
2023-05-14T03:52:53.570Z,10.42
2023-05-14T03:55:20.328Z,10.39
2023-05-14T03:57:48.120Z,10.39
2023-05-14T04:00:15.382Z,10.37
2023-05-14T04:02:44.884Z,10.40
2023-05-14T04:05:11.482Z,10.37
2023-05-14T04:07:38.090Z,10.37
2023-05-14T04:10:04.968Z,10.34
2023-05-14T04:12:34.090Z,10.34
2023-05-14T04:15:01.090Z,10.32
2023-05-14T04:17:27.671Z,10.29
2023-05-14T04:19:54.173Z,10.28
2023-05-14T04:22:20.642Z,10.29
2023-05-14T04:24:47.232Z,10.35
2023-05-14T04:27:21.041Z,10.39
2023-05-14T04:29:48.318Z,10.38
2023-05-14T04:32:14.843Z,10.37
2023-05-14T04:34:41.287Z,10.38
2023-05-14T04:37:08.026Z,10.41
2023-05-14T04:39:34.555Z,10.42
2023-05-14T04:42:01.138Z,10.42
2023-05-14T04:44:27.682Z,10.46
2023-05-14T04:46:54.183Z,10.46
2023-05-14T04:49:21.041Z,10.46
2023-05-14T04:51:48.222Z,10.47
2023-05-14T04:54:14.834Z,10.46
2023-05-14T04:56:41.313Z,10.51
2023-05-14T04:59:07.783Z,10.52
2023-05-14T05:01:34.369Z,10.53
2023-05-14T05:04:00.966Z,10.58
2023-05-14T05:06:27.562Z,10.61
2023-05-14T05:08:54.072Z,10.59
2023-05-14T05:11:21.299Z,10.64
2023-05-14T05:13:47.738Z,10.63
2023-05-14T05:16:14.411Z,10.68
2023-05-14T05:18:41.211Z,10.72
2023-05-14T05:21:07.832Z,10.78
2023-05-14T05:23:34.395Z,10.94
2023-05-14T05:26:01.135Z,11.07
2023-05-14T05:28:27.707Z,11.20
2023-05-14T05:30:54.435Z,11.34
2023-05-14T05:33:21.304Z,11.51
2023-05-14T05:35:48.951Z,11.63
2023-05-14T05:38:18.083Z,11.75
2023-05-14T05:40:44.924Z,11.92
2023-05-14T05:43:13.951Z,12.04
2023-05-14T05:45:41.702Z,12.18
2023-05-14T05:48:08.503Z,12.29
2023-05-14T05:50:35.591Z,12.41
2023-05-14T05:53:02.292Z,12.56
2023-05-14T05:55:29.615Z,12.60
2023-05-14T05:57:56.452Z,12.67
2023-05-14T06:00:23.919Z,12.79
2023-05-14T06:02:52.208Z,12.87
2023-05-14T06:05:19.502Z,12.95
2023-05-14T06:07:45.982Z,13.05
2023-05-14T06:10:12.505Z,13.12
2023-05-14T06:12:38.995Z,13.14
2023-05-14T06:15:06.352Z,13.18
2023-05-14T06:17:32.889Z,13.13
2023-05-14T06:19:59.460Z,13.14
2023-05-14T06:22:25.895Z,13.06
2023-05-14T06:24:52.370Z,13.03
2023-05-14T06:27:18.958Z,12.98
2023-05-14T06:29:45.453Z,13.02
2023-05-14T06:32:15.275Z,13.03
2023-05-14T06:34:42.546Z,12.97
2023-05-14T06:37:09.912Z,12.98
2023-05-14T06:39:37.392Z,12.92
2023-05-14T06:42:04.394Z,12.97
2023-05-14T06:44:31.216Z,12.93
2023-05-14T06:46:57.697Z,12.95
2023-05-14T06:49:24.264Z,13.00
2023-05-14T06:51:50.782Z,13.03
2023-05-14T06:54:17.405Z,13.03
2023-05-14T06:56:44.117Z,13.04
2023-05-14T06:59:10.714Z,13.04
2023-05-14T07:01:37.338Z,13.07
2023-05-14T07:04:04.029Z,13.11
2023-05-14T07:06:30.767Z,13.12
2023-05-14T07:08:57.218Z,13.12
2023-05-14T07:11:23.688Z,13.14
2023-05-14T07:13:50.285Z,13.18
2023-05-14T07:16:17.850Z,13.24
2023-05-14T07:18:45.378Z,13.26
2023-05-14T07:21:12.142Z,13.30
2023-05-14T07:23:38.655Z,13.34
2023-05-14T07:26:07.550Z,13.38
2023-05-14T07:28:34.304Z,13.45
2023-05-14T07:31:00.946Z,13.43
2023-05-14T07:33:27.530Z,13.51
2023-05-14T07:35:54.172Z,13.59
2023-05-14T07:38:20.876Z,13.65
2023-05-14T07:40:47.307Z,13.68
2023-05-14T07:43:14.297Z,13.75
2023-05-14T07:45:40.781Z,13.82
2023-05-14T07:48:07.370Z,13.88
2023-05-14T07:50:34.004Z,13.94
2023-05-14T07:53:00.594Z,13.97
2023-05-14T07:55:27.012Z,14.01
2023-05-14T07:57:53.493Z,14.01
2023-05-14T08:00:20.109Z,14.06
2023-05-14T08:02:46.684Z,14.14
2023-05-14T08:05:13.473Z,14.15
2023-05-14T08:07:39.972Z,14.18
2023-05-14T08:10:07.577Z,14.19
2023-05-14T08:12:34.093Z,14.20
2023-05-14T08:15:00.592Z,14.32
2023-05-14T08:17:27.123Z,14.42
2023-05-14T08:19:53.988Z,14.47
2023-05-14T08:22:20.550Z,14.52
2023-05-14T08:24:46.999Z,14.58
2023-05-14T08:27:13.440Z,14.65
2023-05-14T08:29:39.902Z,14.73
2023-05-14T08:32:19.310Z,14.74
2023-05-14T08:34:48.980Z,14.73
2023-05-14T08:37:15.459Z,14.81
2023-05-14T08:39:41.907Z,14.89
2023-05-14T08:42:11.110Z,14.97
2023-05-14T08:44:50.234Z,15.11
2023-05-14T08:47:17.921Z,15.29
2023-05-14T08:49:47.033Z,15.44
2023-05-14T08:52:13.528Z,15.51
2023-05-14T08:54:40.580Z,15.48
2023-05-14T08:57:09.892Z,15.50
2023-05-14T08:59:36.600Z,15.51
2023-05-14T09:02:04.992Z,15.50
2023-05-14T09:04:32.370Z,15.44
2023-05-14T09:07:00.248Z,15.51
2023-05-14T09:09:27.360Z,15.59
2023-05-14T09:11:54.177Z,15.65
2023-05-14T09:14:21.923Z,15.66
2023-05-14T09:16:49.805Z,15.67
2023-05-14T09:19:19.162Z,15.69
2023-05-14T09:21:47.085Z,15.83
2023-05-14T09:24:21.361Z,15.92
2023-05-14T09:26:51.145Z,15.95
2023-05-14T09:29:17.596Z,16.05
2023-05-14T09:31:44.026Z,16.21
2023-05-14T09:34:10.857Z,16.40
2023-05-14T09:36:37.292Z,16.53
2023-05-14T09:39:04.297Z,16.61
2023-05-14T09:41:30.742Z,16.78
2023-05-14T09:43:57.809Z,16.82
2023-05-14T09:46:24.293Z,16.91
2023-05-14T09:48:50.780Z,16.99
2023-05-14T09:51:20.872Z,17.01
2023-05-14T09:53:47.344Z,17.04
2023-05-14T09:56:14.622Z,17.05
2023-05-14T09:58:41.145Z,17.04
2023-05-14T10:01:07.754Z,17.02
2023-05-14T10:03:34.411Z,17.11
2023-05-14T10:06:05.322Z,17.27
2023-05-14T10:08:36.076Z,17.39
2023-05-14T10:11:06.904Z,17.39
2023-05-14T10:13:38.995Z,17.45
2023-05-14T10:16:13.183Z,17.55
2023-05-14T10:18:48.340Z,17.49
2023-05-14T10:21:15.618Z,17.64
2023-05-14T10:23:42.720Z,17.73
2023-05-14T10:26:09.717Z,17.85
2023-05-14T10:28:36.620Z,17.88
2023-05-14T10:31:03.666Z,17.78
2023-05-14T10:33:30.302Z,17.78
2023-05-14T10:36:02.033Z,17.75
2023-05-14T10:38:29.851Z,17.74
2023-05-14T10:41:01.287Z,17.73
2023-05-14T10:43:31.443Z,17.68
2023-05-14T10:45:59.844Z,17.78
2023-05-14T10:48:26.816Z,17.75
2023-05-14T10:50:53.734Z,17.78
2023-05-14T10:53:21.067Z,17.84
2023-05-14T10:55:47.483Z,17.73
2023-05-14T10:58:14.756Z,17.70
2023-05-14T11:00:41.218Z,17.71
2023-05-14T11:03:07.716Z,17.74
2023-05-14T11:05:37.171Z,17.90
2023-05-14T11:08:07.694Z,18.10
2023-05-14T11:10:35.552Z,18.23
2023-05-14T11:13:02.162Z,18.33
2023-05-14T11:15:29.023Z,18.37
2023-05-14T11:17:55.622Z,18.44
2023-05-14T11:20:22.268Z,18.51
2023-05-14T11:22:51.377Z,18.64
2023-05-14T11:25:18.690Z,18.74
2023-05-14T11:27:46.888Z,18.70
2023-05-14T11:30:16.760Z,18.61
2023-05-14T11:32:48.024Z,18.58
2023-05-14T11:35:15.336Z,18.62
2023-05-14T11:37:42.695Z,18.46
2023-05-14T11:40:16.074Z,18.37
2023-05-14T11:42:42.506Z,18.48
2023-05-14T11:45:13.120Z,18.48
2023-05-14T11:47:41.603Z,18.46
2023-05-14T11:50:09.537Z,18.31
2023-05-14T11:52:40.848Z,18.16
2023-05-14T11:55:12.080Z,18.25
2023-05-14T11:57:38.529Z,18.26
2023-05-14T12:00:09.087Z,18.28
2023-05-14T12:02:36.242Z,18.20
2023-05-14T12:05:02.776Z,18.24
2023-05-14T12:07:30.090Z,18.21
2023-05-14T12:10:01.358Z,18.28
2023-05-14T12:12:28.049Z,18.30
2023-05-14T12:14:54.475Z,18.39
2023-05-14T12:17:22.620Z,18.42
2023-05-14T12:19:51.228Z,18.42
2023-05-14T12:22:20.210Z,18.34
2023-05-14T12:24:53.965Z,18.37
2023-05-14T12:27:23.549Z,18.29
2023-05-14T12:29:53.373Z,18.32
2023-05-14T12:32:20.212Z,18.40
2023-05-14T12:34:46.631Z,18.59
2023-05-14T12:37:13.100Z,18.70
2023-05-14T12:39:39.516Z,18.76
2023-05-14T12:42:06.146Z,18.77
2023-05-14T12:44:32.626Z,18.79
2023-05-14T12:46:59.109Z,18.55
2023-05-14T12:49:25.847Z,18.46
2023-05-14T12:52:07.940Z,18.53
2023-05-14T12:54:42.826Z,18.49
2023-05-14T12:57:09.438Z,18.36
2023-05-14T12:59:35.968Z,18.38
2023-05-14T13:02:02.480Z,18.57
2023-05-14T13:04:29.100Z,18.83
2023-05-14T13:06:55.950Z,19.06
2023-05-14T13:09:22.388Z,19.19
2023-05-14T13:11:48.880Z,19.16
2023-05-14T13:14:15.578Z,19.01
2023-05-14T13:16:42.375Z,19.08
2023-05-14T13:19:09.331Z,19.22
2023-05-14T13:21:35.779Z,19.32
2023-05-14T13:24:02.262Z,19.44
2023-05-14T13:26:28.749Z,19.49
2023-05-14T13:28:55.235Z,19.53
2023-05-14T13:31:21.754Z,19.57
2023-05-14T13:33:48.359Z,19.49
2023-05-14T13:36:15.140Z,19.40
2023-05-14T13:38:41.803Z,19.39
2023-05-14T13:41:08.287Z,19.45
2023-05-14T13:43:35.584Z,19.43
2023-05-14T13:46:03.220Z,19.57
2023-05-14T13:48:30.931Z,19.58
2023-05-14T13:50:57.505Z,19.65
2023-05-14T13:53:25.522Z,19.54
2023-05-14T13:55:58.518Z,19.56
2023-05-14T13:58:26.609Z,19.60
2023-05-14T14:00:53.363Z,19.64
2023-05-14T14:03:20.131Z,19.71
2023-05-14T14:05:46.594Z,19.71
2023-05-14T14:08:23.247Z,19.76
2023-05-14T14:10:51.117Z,19.93
2023-05-14T14:13:17.814Z,19.93
2023-05-14T14:15:44.369Z,19.99
2023-05-14T14:18:10.981Z,19.90
2023-05-14T14:20:37.413Z,19.80
2023-05-14T14:23:03.839Z,19.85
2023-05-14T14:25:30.225Z,19.95
2023-05-14T14:27:56.805Z,19.90
2023-05-14T14:30:23.280Z,19.76
2023-05-14T14:32:49.902Z,19.68
2023-05-14T14:35:19.114Z,19.65
2023-05-14T14:37:48.998Z,19.67
2023-05-14T14:40:16.614Z,19.75
2023-05-14T14:42:43.582Z,20.00
2023-05-14T14:45:10.686Z,20.04
2023-05-14T14:47:37.171Z,20.10
2023-05-14T14:50:04.362Z,20.02
2023-05-14T14:52:30.776Z,19.85
2023-05-14T14:54:57.259Z,19.89
2023-05-14T14:57:23.735Z,19.89
2023-05-14T14:59:50.318Z,20.01
2023-05-14T15:02:16.830Z,20.06
2023-05-14T15:04:43.641Z,20.10
2023-05-14T15:07:10.149Z,20.19
2023-05-14T15:09:36.632Z,20.38
2023-05-14T15:12:03.122Z,20.35
2023-05-14T15:14:29.534Z,20.33
2023-05-14T15:16:55.986Z,20.28
2023-05-14T15:19:22.570Z,20.24
2023-05-14T15:21:49.131Z,20.30
2023-05-14T15:24:15.562Z,20.42
2023-05-14T15:26:42.052Z,20.45
2023-05-14T15:29:08.614Z,20.35
2023-05-14T15:31:35.054Z,20.50
2023-05-14T15:34:01.661Z,20.71
2023-05-14T15:36:28.564Z,20.65
2023-05-14T15:38:55.028Z,20.58
2023-05-14T15:41:22.664Z,20.60
2023-05-14T15:43:49.087Z,20.69
2023-05-14T15:46:15.754Z,20.63
2023-05-14T15:48:42.264Z,20.62
2023-05-14T15:51:08.785Z,20.56
2023-05-14T15:53:35.417Z,20.52
2023-05-14T15:56:02.734Z,20.52
2023-05-14T15:58:29.153Z,20.52
2023-05-14T16:00:55.982Z,20.60
2023-05-14T16:03:22.542Z,20.57
2023-05-14T16:05:49.102Z,20.56
2023-05-14T16:08:15.630Z,20.49
2023-05-14T16:10:42.141Z,20.52
2023-05-14T16:13:08.997Z,20.57
2023-05-14T16:15:35.443Z,20.52
2023-05-14T16:18:01.914Z,20.63
2023-05-14T16:20:28.452Z,20.74
2023-05-14T16:22:54.877Z,20.87
2023-05-14T16:25:21.392Z,20.93
2023-05-14T16:27:47.824Z,20.99
2023-05-14T16:30:14.445Z,21.04
2023-05-14T16:32:42.052Z,21.08
2023-05-14T16:35:09.046Z,21.08
2023-05-14T16:37:35.852Z,21.18
2023-05-14T16:40:02.480Z,21.25
2023-05-14T16:42:29.193Z,21.37
2023-05-14T16:44:55.627Z,21.47
2023-05-14T16:47:22.083Z,21.37
2023-05-14T16:49:48.659Z,21.40
2023-05-14T16:52:15.315Z,21.53
2023-05-14T16:54:41.789Z,21.67
2023-05-14T16:57:08.212Z,21.75
2023-05-14T16:59:34.623Z,21.92
2023-05-14T17:02:01.293Z,22.06
2023-05-14T17:04:27.819Z,22.10
2023-05-14T17:06:55.223Z,22.08
2023-05-14T17:09:21.690Z,21.91
2023-05-14T17:11:48.194Z,21.62
2023-05-14T17:14:14.870Z,21.16
2023-05-14T17:16:42.291Z,20.71
2023-05-14T17:19:08.830Z,20.45
2023-05-14T17:21:35.394Z,20.43
2023-05-14T17:24:01.899Z,20.35
2023-05-14T17:26:28.322Z,20.39
2023-05-14T17:28:54.742Z,20.52
2023-05-14T17:31:22.237Z,20.63
2023-05-14T17:33:48.978Z,20.63
2023-05-14T17:36:15.457Z,20.51
2023-05-14T17:38:42.091Z,20.44
2023-05-14T17:41:08.637Z,20.48
2023-05-14T17:43:35.233Z,20.41
2023-05-14T17:46:01.733Z,20.36
2023-05-14T17:48:28.197Z,20.24
2023-05-14T17:50:54.745Z,20.16
2023-05-14T17:53:21.337Z,20.07
2023-05-14T17:55:47.959Z,20.01
2023-05-14T17:58:15.438Z,20.00
2023-05-14T18:00:42.382Z,20.00
2023-05-14T18:03:09.015Z,19.94
2023-05-14T18:05:35.729Z,19.91
2023-05-14T18:08:02.321Z,19.87
2023-05-14T18:10:29.645Z,19.73
2023-05-14T18:12:56.499Z,19.62
2023-05-14T18:15:25.394Z,19.44
2023-05-14T18:17:52.478Z,19.11
2023-05-14T18:20:19.128Z,18.84
2023-05-14T18:22:45.560Z,18.72
2023-05-14T18:25:12.747Z,18.54
2023-05-14T18:27:44.135Z,18.35
2023-05-14T18:30:12.865Z,18.21
2023-05-14T18:32:40.037Z,18.07
2023-05-14T18:35:08.159Z,18.00
2023-05-14T18:37:36.522Z,17.90
2023-05-14T18:40:04.576Z,17.82
2023-05-14T18:42:31.050Z,17.75
2023-05-14T18:44:57.513Z,17.64
2023-05-14T18:47:24.013Z,17.56
2023-05-14T18:49:54.728Z,17.49
2023-05-14T18:52:22.568Z,17.50
2023-05-14T18:54:48.986Z,17.47
2023-05-14T18:57:15.408Z,17.34
2023-05-14T18:59:41.886Z,17.27
2023-05-14T19:02:08.612Z,17.24
2023-05-14T19:04:47.783Z,17.19
2023-05-14T19:07:17.369Z,17.13
2023-05-14T19:09:43.813Z,17.05
2023-05-14T19:12:10.319Z,16.97
2023-05-14T19:14:36.708Z,16.93
2023-05-14T19:17:03.282Z,16.83
2023-05-14T19:19:29.678Z,16.74
2023-05-14T19:21:56.106Z,16.70
2023-05-14T19:24:22.558Z,16.68
2023-05-14T19:26:49.321Z,16.68
2023-05-14T19:29:15.768Z,16.66
2023-05-14T19:31:42.302Z,16.65
2023-05-14T19:34:08.820Z,16.61
2023-05-14T19:36:35.342Z,16.55
2023-05-14T19:39:01.767Z,16.52
2023-05-14T19:41:28.295Z,16.44
2023-05-14T19:43:54.784Z,16.41
2023-05-14T19:46:21.321Z,16.34
2023-05-14T19:48:48.401Z,16.27
2023-05-14T19:51:14.925Z,16.19
2023-05-14T19:53:41.626Z,16.12
2023-05-14T19:56:08.118Z,16.06
2023-05-14T19:58:34.587Z,16.07
2023-05-14T20:01:01.094Z,16.04
2023-05-14T20:03:27.581Z,15.99
2023-05-14T20:05:55.359Z,15.91
2023-05-14T20:08:21.890Z,15.81
2023-05-14T20:10:48.564Z,15.72
2023-05-14T20:13:15.222Z,15.63
2023-05-14T20:15:42.058Z,15.52
2023-05-14T20:18:08.668Z,15.43
2023-05-14T20:20:35.734Z,15.32
2023-05-14T20:23:02.209Z,15.28
2023-05-14T20:25:29.033Z,15.19
2023-05-14T20:27:55.609Z,15.11
2023-05-14T20:30:22.348Z,15.01
2023-05-14T20:32:48.972Z,14.90
2023-05-14T20:35:15.495Z,14.84
2023-05-14T20:37:42.091Z,14.73
2023-05-14T20:40:14.820Z,14.69
2023-05-14T20:42:41.385Z,14.63
2023-05-14T20:45:08.418Z,14.55
2023-05-14T20:47:35.621Z,14.49
2023-05-14T20:50:02.241Z,14.40
2023-05-14T20:52:28.813Z,14.33
2023-05-14T20:54:55.441Z,14.26
2023-05-14T20:57:22.629Z,14.19
2023-05-14T20:59:49.254Z,14.14
2023-05-14T21:02:15.871Z,14.07
2023-05-14T21:04:42.743Z,14.00
2023-05-14T21:07:09.383Z,13.96
2023-05-14T21:09:36.035Z,13.90
2023-05-14T21:12:02.547Z,13.87
2023-05-14T21:14:29.045Z,13.83
2023-05-14T21:16:55.634Z,13.78
2023-05-14T21:19:22.845Z,13.75
2023-05-14T21:21:49.372Z,13.71
2023-05-14T21:24:16.776Z,13.66
2023-05-14T21:26:43.360Z,13.60
2023-05-14T21:29:09.949Z,13.55
2023-05-14T21:31:36.521Z,13.45
2023-05-14T21:34:03.128Z,13.42
2023-05-14T21:36:29.755Z,13.37
2023-05-14T21:38:56.393Z,13.32
2023-05-14T21:41:23.235Z,13.32
2023-05-14T21:43:49.794Z,13.28
2023-05-14T21:46:16.568Z,13.24
2023-05-14T21:48:43.271Z,13.22
2023-05-14T21:51:10.132Z,13.19
2023-05-14T21:53:36.981Z,13.12
2023-05-14T21:56:04.813Z,13.04
2023-05-14T21:58:31.616Z,13.01
2023-05-14T22:00:58.299Z,12.97
2023-05-14T22:03:25.018Z,12.90
2023-05-14T22:05:51.923Z,12.87
2023-05-14T22:08:18.569Z,12.87
2023-05-14T22:10:47.100Z,12.87
2023-05-14T22:13:13.784Z,12.87
2023-05-14T22:15:40.810Z,12.85
2023-05-14T22:18:07.524Z,12.82
2023-05-14T22:20:34.186Z,12.78
2023-05-14T22:23:00.726Z,12.74
2023-05-14T22:25:27.629Z,12.68
2023-05-14T22:27:54.526Z,12.64
2023-05-14T22:30:21.356Z,12.61
2023-05-14T22:32:48.130Z,12.56
2023-05-14T22:35:14.894Z,12.56
2023-05-14T22:37:41.531Z,12.50
2023-05-14T22:40:09.221Z,12.48
2023-05-14T22:42:36.026Z,12.48
2023-05-14T22:45:03.054Z,12.45
2023-05-14T22:47:31.003Z,12.42
2023-05-14T22:49:57.641Z,12.39
2023-05-14T22:52:25.765Z,12.36
2023-05-14T22:54:53.383Z,12.35
2023-05-14T22:57:20.326Z,12.31
2023-05-14T22:59:47.106Z,12.31
2023-05-14T23:02:13.849Z,12.26
2023-05-14T23:04:40.812Z,12.24
2023-05-14T23:07:08.565Z,12.19
2023-05-14T23:35:43.008Z,11.96
2023-05-14T23:38:47.866Z,11.97
